| time (UTC) | temp F | wind direction | speed MPH | gust MPH | rain 1hr in | rain 24hr in | rain mn in | humidity % | barometer mb |
| 20260507130519 | 68 | 89 | 4.0 | 9.0 | 0.00 | 0.00 | 0.00 | 25 | 1015.9 |
| 20260507125519 | 68 | 67 | 4.0 | 7.0 | 0.00 | 0.00 | 0.00 | 26 | 1015.9 |
| 20260507124516 | 69 | 66 | 6.0 | 9.0 | 0.00 | 0.00 | 0.00 | 25 | 1015.8 |
| 20260507123517 | 68 | 59 | 6.0 | 14.0 | 0.00 | 0.00 | 0.00 | 26 | 1015.6 |
| 20260507122520 | 65 | 61 | 5.0 | 8.0 | 0.00 | 0.00 | 0.00 | 28 | 1015.7 |
| 20260507121520 | 61 | 16 | 1.0 | 4.0 | 0.00 | 0.00 | 0.00 | 38 | 1015.6 |
| 20260507120517 | 61 | 19 | 1.0 | 2.0 | 0.00 | 0.00 | 0.00 | 38 | 1015.7 |
| 20260507115538 | 61 | 334 | 1.0 | 6.0 | 0.00 | 0.00 | 0.00 | 38 | 1015.7 |
| 20260507114518 | 60 | 346 | 1.0 | 3.0 | 0.00 | 0.00 | 0.00 | 38 | 1015.8 |
| 20260507113518 | 59 | 42 | 1.0 | 2.0 | 0.00 | 0.00 | 0.00 | 41 | 1015.9 |
| 20260507112538 | 61 | 40 | 1.0 | 2.0 | 0.00 | 0.00 | 0.00 | 38 | 1016.0 |
| 20260507111538 | 62 | 72 | 2.0 | 2.0 | 0.00 | 0.00 | 0.00 | 37 | 1016.1 |
| 20260507110518 | 63 | 67 | 2.0 | 3.0 | 0.00 | 0.00 | 0.00 | 36 | 1016.1 |
| 20260507105519 | 64 | 52 | 3.0 | 5.0 | 0.00 | 0.00 | 0.00 | 35 | 1016.2 |
| 20260507104519 | 64 | 55 | 3.0 | 6.0 | 0.00 | 0.00 | 0.00 | 35 | 1016.2 |
| 20260507103518 | 64 | 53 | 3.0 | 6.0 | 0.00 | 0.00 | 0.00 | 34 | 1016.2 |
| 20260507102519 | 64 | 59 | 3.0 | 7.0 | 0.00 | 0.00 | 0.00 | 34 | 1016.4 |
| 20260507101517 | 64 | 50 | 4.0 | 7.0 | 0.00 | 0.00 | 0.00 | 34 | 1016.4 |
| 20260507100519 | 64 | 62 | 3.0 | 5.0 | 0.00 | 0.00 | 0.00 | 34 | 1016.5 |
| 20260507095519 | 64 | 64 | 4.0 | 7.0 | 0.00 | 0.00 | 0.00 | 34 | 1016.5 |
| 20260507094539 | 63 | 59 | 2.0 | 4.0 | 0.00 | 0.00 | 0.00 | 35 | 1016.5 |
| 20260507093517 | 63 | 62 | 3.0 | 5.0 | 0.00 | 0.00 | 0.00 | 35 | 1016.6 |
| 20260507092517 | 64 | 68 | 3.0 | 5.0 | 0.00 | 0.00 | 0.00 | 34 | 1016.7 |
| 20260507091517 | 63 | 52 | 2.0 | 4.0 | 0.00 | 0.00 | 0.00 | 35 | 1016.7 |
| 20260507090520 | 63 | 68 | 2.0 | 4.0 | 0.00 | 0.00 | 0.00 | 36 | 1016.7 |
| 20260507085518 | 61 | 63 | 3.0 | 6.0 | 0.00 | 0.00 | 0.00 | 37 | 1016.8 |
| 20260507084538 | 61 | 55 | 2.0 | 3.0 | 0.00 | 0.00 | 0.00 | 38 | 1016.8 |
| 20260507083518 | 61 | 62 | 2.0 | 4.0 | 0.00 | 0.00 | 0.00 | 38 | 1016.8 |
| 20260507082518 | 61 | 66 | 3.0 | 4.0 | 0.00 | 0.00 | 0.00 | 38 | 1016.9 |
| 20260507081518 | 61 | 59 | 2.0 | 3.0 | 0.00 | 0.00 | 0.00 | 38 | 1016.8 |
| 20260507080519 | 62 | 66 | 2.0 | 4.0 | 0.00 | 0.00 | 0.00 | 38 | 1016.8 |
| 20260507075519 | 63 | 58 | 2.0 | 3.0 | 0.00 | 0.00 | 0.00 | 36 | 1016.9 |
| 20260507074519 | 63 | 52 | 2.0 | 3.0 | 0.00 | 0.00 | 0.00 | 36 | 1017.0 |
| 20260507073539 | 63 | 40 | 2.0 | 4.0 | 0.00 | 0.00 | 0.00 | 36 | 1017.1 |
| 20260507072519 | 63 | 45 | 2.0 | 4.0 | 0.00 | 0.00 | 0.00 | 36 | 1017.1 |
| 20260507071519 | 62 | 36 | 3.0 | 5.0 | 0.00 | 0.00 | 0.00 | 37 | 1017.1 |
| 20260507070517 | 62 | 45 | 2.0 | 4.0 | 0.00 | 0.00 | 0.00 | 39 | 1017.1 |
| 20260507065557 | 62 | 57 | 1.0 | 2.0 | 0.00 | 0.00 | 0.00 | 39 | 1017.2 |
| 20260507064600 | 62 | 56 | 1.0 | 2.0 | 0.00 | 0.00 | 0.00 | 39 | 1017.1 |
| 20260507063517 | 62 | 43 | 1.0 | 2.0 | 0.00 | 0.00 | 0.00 | 38 | 1017.1 |
| 20260507062518 | 62 | 54 | 1.0 | 2.0 | 0.00 | 0.00 | 0.00 | 39 | 1017.1 |
| 20260507061518 | 62 | 57 | 1.0 | 2.0 | 0.00 | 0.00 | 0.00 | 38 | 1017.0 |
| 20260507060538 | 62 | 53 | 1.0 | 3.0 | 0.00 | 0.00 | 0.00 | 38 | 1017.0 |
| 20260507055518 | 62 | 52 | 1.0 | 2.0 | 0.00 | 0.00 | 0.00 | 38 | 1017.0 |
| 20260507054518 | 63 | 53 | 1.0 | 2.0 | 0.00 | 0.00 | 0.00 | 39 | 1016.9 |
| 20260507053519 | 63 | 52 | 1.0 | 2.0 | 0.00 | 0.00 | 0.00 | 38 | 1017.0 |
| 20260507052519 | 63 | 53 | 1.0 | 2.0 | 0.00 | 0.00 | 0.00 | 39 | 1017.0 |
| 20260507051559 | 64 | 59 | 0.0 | 2.0 | 0.00 | 0.00 | 0.00 | 37 | 1016.9 |
| 20260507050519 | 64 | 50 | 0.0 | 2.0 | 0.00 | 0.00 | 0.00 | 37 | 1016.9 |
| 20260507045519 | 65 | 38 | 1.0 | 2.0 | 0.00 | 0.00 | 0.00 | 36 | 1016.9 |
| 20260507044516 | 65 | 22 | 1.0 | 3.0 | 0.00 | 0.00 | 0.00 | 35 | 1016.9 |
| 20260507043517 | 65 | 35 | 1.0 | 3.0 | 0.00 | 0.00 | 0.00 | 35 | 1016.8 |
| 20260507042520 | 66 | 20 | 1.0 | 2.0 | 0.00 | 0.00 | 0.00 | 35 | 1016.7 |
| 20260507041520 | 66 | 27 | 1.0 | 2.0 | 0.00 | 0.00 | 0.00 | 34 | 1016.6 |
| 20260507040520 | 67 | 9 | 1.0 | 2.0 | 0.00 | 0.00 | 0.00 | 34 | 1016.4 |
| 20260507035517 | 67 | 354 | 2.0 | 3.0 | 0.00 | 0.00 | 0.00 | 34 | 1016.3 |
| 20260507034517 | 67 | 323 | 0.0 | 1.0 | 0.00 | 0.00 | 0.00 | 34 | 1016.2 |
| 20260507033537 | 67 | 60 | 0.0 | 1.0 | 0.00 | 0.00 | 0.00 | 34 | 1016.1 |
| 20260507032517 | 68 | 320 | 0.0 | 1.0 | 0.00 | 0.00 | 0.00 | 33 | 1015.9 |
| 20260507031518 | 68 | 303 | 1.0 | 2.0 | 0.00 | 0.00 | 0.00 | 33 | 1015.8 |
| 20260507030521 | 69 | 287 | 0.0 | 1.0 | 0.00 | 0.00 | 0.00 | 32 | 1015.6 |
| 20260507025518 | 70 | 282 | 1.0 | 3.0 | 0.00 | 0.00 | 0.00 | 31 | 1015.4 |
| 20260507024519 | 70 | 250 | 2.0 | 3.0 | 0.00 | 0.00 | 0.00 | 30 | 1015.4 |
| 20260507023518 | 71 | 258 | 2.0 | 4.0 | 0.00 | 0.00 | 0.00 | 29 | 1015.3 |
| 20260507022519 | 71 | 247 | 3.0 | 6.0 | 0.00 | 0.00 | 0.00 | 29 | 1015.2 |
| 20260507021519 | 72 | 245 | 3.0 | 7.0 | 0.00 | 0.00 | 0.00 | 28 | 1015.1 |
| 20260507020539 | 73 | 233 | 5.0 | 10.0 | 0.00 | 0.00 | 0.00 | 28 | 1015.0 |
| 20260507015516 | 73 | 240 | 5.0 | 8.0 | 0.00 | 0.00 | 0.00 | 28 | 1015.0 |
| 20260507014516 | 74 | 251 | 3.0 | 6.0 | 0.00 | 0.00 | 0.00 | 27 | 1014.9 |
| 20260507013520 | 74 | 249 | 5.0 | 10.0 | 0.00 | 0.00 | 0.00 | 27 | 1014.9 |
| 20260507012520 | 75 | 247 | 5.0 | 10.0 | 0.00 | 0.00 | 0.00 | 27 | 1014.8 |
| 20260507011517 | 75 | 232 | 5.0 | 11.0 | 0.00 | 0.00 | 0.00 | 26 | 1014.8 |
| 20260507010517 | 75 | 243 | 5.0 | 9.0 | 0.00 | 0.00 | 0.00 | 26 | 1014.8 |
| 20260507005537 | 75 | 238 | 5.0 | 8.0 | 0.00 | 0.00 | 0.00 | 26 | 1014.7 |
| 20260507004517 | 75 | 243 | 5.0 | 10.0 | 0.00 | 0.00 | 0.00 | 26 | 1014.7 |
| 20260507003518 | 76 | 237 | 6.0 | 12.0 | 0.00 | 0.00 | 0.00 | 26 | 1014.7 |
| 20260507002518 | 76 | 243 | 4.0 | 8.0 | 0.00 | 0.00 | 0.00 | 27 | 1014.7 |
| 20260507001558 | 76 | 250 | 4.0 | 9.0 | 0.00 | 0.00 | 0.00 | 26 | 1014.7 |
| 20260507000518 | 76 | 238 | 3.0 | 9.0 | 0.00 | 0.00 | 0.00 | 26 | 1014.7 |
| 20260506235518 | 76 | 240 | 4.0 | 7.0 | 0.00 | 0.00 | 0.00 | 27 | 1014.6 |
| 20260506234542 | 76 | 246 | 6.0 | 10.0 | 0.00 | 0.00 | 0.00 | 27 | 1014.7 |
| 20260506233519 | 75 | 234 | 5.0 | 8.0 | 0.00 | 0.00 | 0.00 | 27 | 1014.8 |
| 20260506232519 | 75 | 230 | 4.0 | 10.0 | 0.00 | 0.00 | 0.00 | 27 | 1014.8 |
| 20260506231538 | 75 | 252 | 4.0 | 8.0 | 0.00 | 0.00 | 0.00 | 27 | 1014.8 |
| 20260506230519 | 76 | 236 | 6.0 | 11.0 | 0.00 | 0.00 | 0.00 | 26 | 1014.9 |
| 20260506225519 | 75 | 233 | 5.0 | 11.0 | 0.00 | 0.00 | 0.00 | 27 | 1015.0 |
| 20260506224519 | 75 | 224 | 5.0 | 10.0 | 0.00 | 0.00 | 0.00 | 27 | 1015.1 |
| 20260506223540 | 75 | 252 | 7.0 | 13.0 | 0.00 | 0.00 | 0.00 | 27 | 1015.1 |
| 20260506222520 | 75 | 237 | 5.0 | 11.0 | 0.00 | 0.00 | 0.00 | 27 | 1015.2 |
| 20260506221520 | 75 | 271 | 4.0 | 9.0 | 0.00 | 0.00 | 0.00 | 27 | 1015.4 |
| 20260506220520 | 74 | 224 | 7.0 | 14.0 | 0.00 | 0.00 | 0.00 | 27 | 1015.4 |
| 20260506215520 | 75 | 248 | 7.0 | 13.0 | 0.00 | 0.00 | 0.00 | 27 | 1015.6 |
| 20260506214540 | 74 | 249 | 5.0 | 14.0 | 0.00 | 0.00 | 0.00 | 28 | 1015.7 |
| 20260506213517 | 74 | 236 | 5.0 | 9.0 | 0.00 | 0.00 | 0.00 | 28 | 1015.8 |
| 20260506212518 | 74 | 243 | 6.0 | 11.0 | 0.00 | 0.00 | 0.00 | 28 | 1015.9 |
| 20260506211521 | 73 | 246 | 5.0 | 11.0 | 0.00 | 0.00 | 0.00 | 29 | 1016.1 |
| 20260506210521 | 73 | 251 | 7.0 | 13.0 | 0.00 | 0.00 | 0.00 | 29 | 1016.2 |
| 20260506205518 | 73 | 255 | 5.0 | 11.0 | 0.00 | 0.00 | 0.00 | 29 | 1016.3 |
| 20260506204518 | 73 | 227 | 4.0 | 9.0 | 0.00 | 0.00 | 0.00 | 29 | 1016.5 |
| 20260506203518 | 73 | 294 | 3.0 | 8.0 | 0.00 | 0.00 | 0.00 | 29 | 1016.6 |
| 20260506202519 | 73 | 230 | 5.0 | 10.0 | 0.00 | 0.00 | 0.00 | 29 | 1016.7 |
| 20260506201519 | 72 | 235 | 5.0 | 12.0 | 0.00 | 0.00 | 0.00 | 30 | 1016.7 |
| 20260506200519 | 72 | 248 | 4.0 | 9.0 | 0.00 | 0.00 | 0.00 | 30 | 1016.8 |
| 20260506195519 | 72 | 250 | 7.0 | 12.0 | 0.00 | 0.00 | 0.00 | 31 | 1016.9 |
| 20260506194520 | 72 | 233 | 5.0 | 12.0 | 0.00 | 0.00 | 0.00 | 31 | 1017.0 |
| 20260506193520 | 72 | 250 | 5.0 | 11.0 | 0.00 | 0.00 | 0.00 | 31 | 1017.0 |
| 20260506192520 | 71 | 247 | 4.0 | 8.0 | 0.00 | 0.00 | 0.00 | 32 | 1017.1 |
| 20260506191540 | 70 | 254 | 5.0 | 12.0 | 0.00 | 0.00 | 0.00 | 32 | 1017.1 |
| 20260506190517 | 70 | 291 | 3.0 | 7.0 | 0.00 | 0.00 | 0.00 | 32 | 1017.2 |
| 20260506185517 | 70 | 240 | 5.0 | 9.0 | 0.00 | 0.00 | 0.00 | 32 | 1017.3 |
| 20260506184518 | 69 | 250 | 5.0 | 11.0 | 0.00 | 0.00 | 0.00 | 33 | 1017.4 |
| 20260506183517 | 69 | 232 | 3.0 | 8.0 | 0.00 | 0.00 | 0.00 | 33 | 1017.5 |
| 20260506182518 | 69 | 215 | 2.0 | 8.0 | 0.00 | 0.00 | 0.00 | 33 | 1017.6 |
| 20260506181541 | 69 | 274 | 2.0 | 7.0 | 0.00 | 0.00 | 0.00 | 33 | 1017.7 |
| 20260506180518 | 68 | 258 | 2.0 | 8.0 | 0.00 | 0.00 | 0.00 | 34 | 1017.7 |
| 20260506175518 | 68 | 198 | 3.0 | 8.0 | 0.00 | 0.00 | 0.00 | 34 | 1017.8 |
| 20260506174538 | 67 | 257 | 4.0 | 9.0 | 0.00 | 0.00 | 0.00 | 35 | 1017.8 |
| 20260506173519 | 67 | 233 | 6.0 | 11.0 | 0.00 | 0.00 | 0.00 | 34 | 1017.8 |
| 20260506172519 | 67 | 230 | 3.0 | 8.0 | 0.00 | 0.00 | 0.00 | 35 | 1017.8 |
| 20260506171519 | 66 | 241 | 4.0 | 12.0 | 0.00 | 0.00 | 0.00 | 36 | 1017.8 |
| 20260506170519 | 66 | 213 | 3.0 | 8.0 | 0.00 | 0.00 | 0.00 | 37 | 1017.8 |
| 20260506165519 | 65 | 199 | 3.0 | 8.0 | 0.00 | 0.00 | 0.00 | 37 | 1017.7 |
| 20260506164519 | 65 | 204 | 3.0 | 8.0 | 0.00 | 0.00 | 0.00 | 38 | 1017.6 |
| 20260506163520 | 65 | 248 | 4.0 | 9.0 | 0.00 | 0.00 | 0.00 | 38 | 1017.6 |
| 20260506162540 | 65 | 256 | 5.0 | 9.0 | 0.00 | 0.00 | 0.00 | 39 | 1017.5 |
| 20260506161517 | 64 | 253 | 4.0 | 9.0 | 0.00 | 0.00 | 0.00 | 40 | 1017.5 |
| 20260506160520 | 64 | 123 | 2.0 | 4.0 | 0.00 | 0.00 | 0.00 | 39 | 1017.5 |
| 20260506155520 | 64 | 245 | 4.0 | 7.0 | 0.00 | 0.00 | 0.00 | 40 | 1017.5 |
| 20260506154521 | 64 | 250 | 3.0 | 8.0 | 0.00 | 0.00 | 0.00 | 40 | 1017.4 |
| 20260506153520 | 63 | 179 | 1.0 | 4.0 | 0.00 | 0.00 | 0.00 | 41 | 1017.5 |
| 20260506152518 | 64 | 246 | 2.0 | 4.0 | 0.00 | 0.00 | 0.00 | 41 | 1017.5 |
| 20260506151518 | 63 | 160 | 1.0 | 4.0 | 0.00 | 0.00 | 0.00 | 41 | 1017.5 |
| 20260506150518 | 63 | 168 | 2.0 | 6.0 | 0.00 | 0.00 | 0.00 | 41 | 1017.5 |
| 20260506145521 | 63 | 100 | 1.0 | 3.0 | 0.00 | 0.00 | 0.00 | 42 | 1017.5 |
| 20260506144521 | 62 | 111 | 1.0 | 4.0 | 0.00 | 0.00 | 0.00 | 42 | 1017.4 |
| 20260506143518 | 62 | 97 | 2.0 | 6.0 | 0.00 | 0.00 | 0.00 | 42 | 1017.5 |
| 20260506142519 | 61 | 85 | 1.0 | 4.0 | 0.00 | 0.00 | 0.00 | 43 | 1017.4 |
| 20260506141519 | 60 | 87 | 2.0 | 5.0 | 0.00 | 0.00 | 0.00 | 44 | 1017.3 |
| 20260506140519 | 60 | 86 | 2.0 | 5.0 | 0.00 | 0.00 | 0.00 | 45 | 1017.2 |
| 20260506135519 | 59 | 79 | 2.0 | 3.0 | 0.00 | 0.00 | 0.00 | 47 | 1017.1 |
| 20260506134520 | 57 | 67 | 2.0 | 5.0 | 0.00 | 0.00 | 0.00 | 49 | 1016.9 |
| 20260506133520 | 56 | 57 | 2.0 | 3.0 | 0.00 | 0.00 | 0.00 | 51 | 1016.8 |
| 20260506132521 | 54 | 75 | 2.0 | 3.0 | 0.00 | 0.00 | 0.00 | 53 | 1016.6 |
| 20260506131520 | 53 | 83 | 2.0 | 3.0 | 0.00 | 0.00 | 0.00 | 54 | 1016.5 |